sensor_id;sensor_type;location;lat;lon;timestamp;P1;durP1;ratioP1;P2;durP2;ratioP2
12846;SDS011;6492;48.128;8.320;2022-10-29T00:03:24;5.95;;;2.65;;
12846;SDS011;6492;48.128;8.320;2022-10-29T00:07:26;10.70;;;3.13;;
12846;SDS011;6492;48.128;8.320;2022-10-29T00:11:28;7.67;;;2.50;;
12846;SDS011;6492;48.128;8.320;2022-10-29T00:15:30;7.07;;;3.22;;
12846;SDS011;6492;48.128;8.320;2022-10-29T00:19:33;6.82;;;3.00;;
12846;SDS011;6492;48.128;8.320;2022-10-29T00:23:35;5.87;;;2.50;;
12846;SDS011;6492;48.128;8.320;2022-10-29T00:27:36;5.93;;;2.27;;
12846;SDS011;6492;48.128;8.320;2022-10-29T00:31:38;8.88;;;3.00;;
12846;SDS011;6492;48.128;8.320;2022-10-29T00:35:41;9.82;;;2.92;;
12846;SDS011;6492;48.128;8.320;2022-10-29T00:39:43;6.05;;;2.40;;
12846;SDS011;6492;48.128;8.320;2022-10-29T00:43:45;6.97;;;2.60;;
12846;SDS011;6492;48.128;8.320;2022-10-29T00:47:48;8.25;;;2.58;;
12846;SDS011;6492;48.128;8.320;2022-10-29T00:51:54;5.07;;;2.17;;
12846;SDS011;6492;48.128;8.320;2022-10-29T00:55:56;4.22;;;2.30;;
12846;SDS011;6492;48.128;8.320;2022-10-29T00:59:59;5.50;;;2.33;;
12846;SDS011;6492;48.128;8.320;2022-10-29T01:04:01;4.95;;;2.40;;
12846;SDS011;6492;48.128;8.320;2022-10-29T01:08:05;5.15;;;2.47;;
12846;SDS011;6492;48.128;8.320;2022-10-29T01:12:11;8.07;;;2.85;;
12846;SDS011;6492;48.128;8.320;2022-10-29T01:16:43;6.25;;;2.80;;
12846;SDS011;6492;48.128;8.320;2022-10-29T01:20:56;5.25;;;2.60;;
12846;SDS011;6492;48.128;8.320;2022-10-29T01:25:22;6.43;;;2.87;;
12846;SDS011;6492;48.128;8.320;2022-10-29T01:29:43;6.43;;;2.88;;
12846;SDS011;6492;48.128;8.320;2022-10-29T01:34:00;3.78;;;2.38;;
12846;SDS011;6492;48.128;8.320;2022-10-29T01:38:08;10.73;;;2.95;;
12846;SDS011;6492;48.128;8.320;2022-10-29T01:42:18;7.07;;;2.80;;
12846;SDS011;6492;48.128;8.320;2022-10-29T01:46:28;5.63;;;2.40;;
12846;SDS011;6492;48.128;8.320;2022-10-29T01:50:37;6.17;;;2.70;;
12846;SDS011;6492;48.128;8.320;2022-10-29T01:54:42;7.33;;;2.47;;
12846;SDS011;6492;48.128;8.320;2022-10-29T01:58:46;5.40;;;2.70;;
12846;SDS011;6492;48.128;8.320;2022-10-29T02:02:53;5.27;;;2.37;;
12846;SDS011;6492;48.128;8.320;2022-10-29T02:07:08;6.67;;;2.10;;
12846;SDS011;6492;48.128;8.320;2022-10-29T02:11:19;4.93;;;2.40;;
12846;SDS011;6492;48.128;8.320;2022-10-29T02:15:24;6.43;;;2.43;;
12846;SDS011;6492;48.128;8.320;2022-10-29T02:19:29;6.63;;;2.30;;
12846;SDS011;6492;48.128;8.320;2022-10-29T02:23:33;4.23;;;2.30;;
12846;SDS011;6492;48.128;8.320;2022-10-29T02:27:34;6.43;;;2.80;;
12846;SDS011;6492;48.128;8.320;2022-10-29T02:31:36;7.10;;;3.10;;
12846;SDS011;6492;48.128;8.320;2022-10-29T02:35:38;6.00;;;2.47;;
12846;SDS011;6492;48.128;8.320;2022-10-29T02:39:41;7.30;;;2.70;;
12846;SDS011;6492;48.128;8.320;2022-10-29T02:43:43;8.93;;;2.80;;
12846;SDS011;6492;48.128;8.320;2022-10-29T02:47:45;7.10;;;2.60;;
12846;SDS011;6492;48.128;8.320;2022-10-29T02:51:47;5.37;;;2.73;;
12846;SDS011;6492;48.128;8.320;2022-10-29T02:55:50;10.43;;;2.47;;
12846;SDS011;6492;48.128;8.320;2022-10-29T02:59:52;7.60;;;2.43;;
12846;SDS011;6492;48.128;8.320;2022-10-29T03:03:54;4.70;;;2.13;;
12846;SDS011;6492;48.128;8.320;2022-10-29T03:07:56;5.50;;;2.50;;
12846;SDS011;6492;48.128;8.320;2022-10-29T03:11:59;9.20;;;2.63;;
12846;SDS011;6492;48.128;8.320;2022-10-29T03:16:00;7.30;;;2.60;;
12846;SDS011;6492;48.128;8.320;2022-10-29T03:20:03;5.43;;;2.17;;
12846;SDS011;6492;48.128;8.320;2022-10-29T03:24:05;11.97;;;2.97;;
12846;SDS011;6492;48.128;8.320;2022-10-29T03:28:09;5.80;;;2.60;;
12846;SDS011;6492;48.128;8.320;2022-10-29T03:32:10;10.27;;;2.47;;
12846;SDS011;6492;48.128;8.320;2022-10-29T03:36:12;4.20;;;2.40;;
12846;SDS011;6492;48.128;8.320;2022-10-29T03:40:14;8.93;;;2.57;;
12846;SDS011;6492;48.128;8.320;2022-10-29T03:44:17;6.47;;;3.20;;
12846;SDS011;6492;48.128;8.320;2022-10-29T03:48:19;6.17;;;2.80;;
12846;SDS011;6492;48.128;8.320;2022-10-29T03:52:22;6.73;;;2.47;;
12846;SDS011;6492;48.128;8.320;2022-10-29T03:56:24;7.40;;;2.43;;
12846;SDS011;6492;48.128;8.320;2022-10-29T04:00:27;6.07;;;2.40;;
12846;SDS011;6492;48.128;8.320;2022-10-29T04:04:29;7.13;;;2.80;;
12846;SDS011;6492;48.128;8.320;2022-10-29T04:08:30;10.73;;;3.00;;
12846;SDS011;6492;48.128;8.320;2022-10-29T04:12:32;9.80;;;2.53;;
12846;SDS011;6492;48.128;8.320;2022-10-29T04:16:35;7.27;;;2.60;;
12846;SDS011;6492;48.128;8.320;2022-10-29T04:20:38;10.60;;;3.33;;
12846;SDS011;6492;48.128;8.320;2022-10-29T04:24:40;7.93;;;3.00;;
12846;SDS011;6492;48.128;8.320;2022-10-29T04:28:42;9.90;;;3.50;;
12846;SDS011;6492;48.128;8.320;2022-10-29T04:32:49;8.53;;;2.80;;
12846;SDS011;6492;48.128;8.320;2022-10-29T04:36:51;8.47;;;3.20;;
12846;SDS011;6492;48.128;8.320;2022-10-29T04:40:55;8.47;;;2.77;;
12846;SDS011;6492;48.128;8.320;2022-10-29T04:44:57;8.50;;;3.10;;
12846;SDS011;6492;48.128;8.320;2022-10-29T04:49:01;8.03;;;3.27;;
12846;SDS011;6492;48.128;8.320;2022-10-29T04:53:03;7.87;;;2.97;;
12846;SDS011;6492;48.128;8.320;2022-10-29T04:57:06;6.20;;;2.50;;
12846;SDS011;6492;48.128;8.320;2022-10-29T05:01:08;10.90;;;3.30;;
12846;SDS011;6492;48.128;8.320;2022-10-29T05:05:11;8.13;;;2.60;;
12846;SDS011;6492;48.128;8.320;2022-10-29T05:09:12;7.43;;;2.40;;
12846;SDS011;6492;48.128;8.320;2022-10-29T05:13:14;6.63;;;2.70;;
12846;SDS011;6492;48.128;8.320;2022-10-29T05:17:16;6.37;;;2.70;;
12846;SDS011;6492;48.128;8.320;2022-10-29T05:21:19;6.23;;;2.63;;
12846;SDS011;6492;48.128;8.320;2022-10-29T05:25:21;7.30;;;2.80;;
12846;SDS011;6492;48.128;8.320;2022-10-29T05:29:23;6.17;;;2.70;;
12846;SDS011;6492;48.128;8.320;2022-10-29T05:33:25;7.97;;;2.87;;
12846;SDS011;6492;48.128;8.320;2022-10-29T05:37:28;5.30;;;2.60;;
12846;SDS011;6492;48.128;8.320;2022-10-29T05:41:29;8.03;;;2.77;;
12846;SDS011;6492;48.128;8.320;2022-10-29T05:45:31;11.10;;;2.87;;
12846;SDS011;6492;48.128;8.320;2022-10-29T05:49:33;6.43;;;2.90;;
12846;SDS011;6492;48.128;8.320;2022-10-29T05:53:36;7.53;;;3.00;;
12846;SDS011;6492;48.128;8.320;2022-10-29T05:57:38;7.37;;;2.30;;
12846;SDS011;6492;48.128;8.320;2022-10-29T06:01:40;6.30;;;2.60;;
12846;SDS011;6492;48.128;8.320;2022-10-29T06:05:42;6.47;;;3.00;;
12846;SDS011;6492;48.128;8.320;2022-10-29T06:09:45;10.77;;;2.90;;
12846;SDS011;6492;48.128;8.320;2022-10-29T06:13:48;7.37;;;2.40;;
12846;SDS011;6492;48.128;8.320;2022-10-29T06:17:49;8.43;;;2.70;;
12846;SDS011;6492;48.128;8.320;2022-10-29T06:21:51;7.63;;;2.90;;
12846;SDS011;6492;48.128;8.320;2022-10-29T06:25:57;7.10;;;2.40;;
12846;SDS011;6492;48.128;8.320;2022-10-29T06:29:59;7.63;;;2.53;;
12846;SDS011;6492;48.128;8.320;2022-10-29T06:34:00;6.13;;;2.60;;
12846;SDS011;6492;48.128;8.320;2022-10-29T06:38:02;10.73;;;2.80;;
12846;SDS011;6492;48.128;8.320;2022-10-29T06:42:05;6.17;;;2.40;;
12846;SDS011;6492;48.128;8.320;2022-10-29T06:46:07;9.43;;;2.90;;
12846;SDS011;6492;48.128;8.320;2022-10-29T06:50:10;7.37;;;2.60;;
12846;SDS011;6492;48.128;8.320;2022-10-29T06:54:13;6.23;;;2.67;;
12846;SDS011;6492;48.128;8.320;2022-10-29T06:58:17;7.20;;;2.77;;
12846;SDS011;6492;48.128;8.320;2022-10-29T07:02:20;6.87;;;3.30;;
12846;SDS011;6492;48.128;8.320;2022-10-29T07:06:22;10.17;;;3.87;;
12846;SDS011;6492;48.128;8.320;2022-10-29T07:10:24;7.43;;;2.70;;
12846;SDS011;6492;48.128;8.320;2022-10-29T07:14:29;5.47;;;2.27;;
12846;SDS011;6492;48.128;8.320;2022-10-29T07:18:31;8.50;;;2.63;;
12846;SDS011;6492;48.128;8.320;2022-10-29T07:22:33;4.60;;;2.30;;
12846;SDS011;6492;48.128;8.320;2022-10-29T07:26:35;6.33;;;2.73;;
12846;SDS011;6492;48.128;8.320;2022-10-29T07:30:38;6.53;;;2.47;;
12846;SDS011;6492;48.128;8.320;2022-10-29T07:34:41;5.70;;;2.17;;
12846;SDS011;6492;48.128;8.320;2022-10-29T07:38:42;8.17;;;2.57;;
12846;SDS011;6492;48.128;8.320;2022-10-29T07:42:44;8.00;;;2.45;;
12846;SDS011;6492;48.128;8.320;2022-10-29T07:46:47;6.70;;;2.20;;
12846;SDS011;6492;48.128;8.320;2022-10-29T07:50:49;7.67;;;2.50;;
12846;SDS011;6492;48.128;8.320;2022-10-29T07:54:51;7.78;;;2.65;;
12846;SDS011;6492;48.128;8.320;2022-10-29T07:58:52;6.20;;;2.63;;
12846;SDS011;6492;48.128;8.320;2022-10-29T08:02:56;6.18;;;2.38;;
12846;SDS011;6492;48.128;8.320;2022-10-29T08:06:58;4.18;;;2.10;;
12846;SDS011;6492;48.128;8.320;2022-10-29T08:11:00;6.13;;;2.55;;
12846;SDS011;6492;48.128;8.320;2022-10-29T08:15:03;6.03;;;2.55;;
12846;SDS011;6492;48.128;8.320;2022-10-29T08:19:07;4.57;;;2.13;;
12846;SDS011;6492;48.128;8.320;2022-10-29T08:23:09;10.27;;;2.63;;
12846;SDS011;6492;48.128;8.320;2022-10-29T08:27:11;12.32;;;4.90;;
12846;SDS011;6492;48.128;8.320;2022-10-29T08:31:13;8.48;;;2.88;;
12846;SDS011;6492;48.128;8.320;2022-10-29T08:35:16;10.95;;;4.60;;
12846;SDS011;6492;48.128;8.320;2022-10-29T08:39:18;6.60;;;3.20;;
12846;SDS011;6492;48.128;8.320;2022-10-29T08:43:27;6.30;;;2.60;;
12846;SDS011;6492;48.128;8.320;2022-10-29T08:48:10;6.85;;;2.78;;
12846;SDS011;6492;48.128;8.320;2022-10-29T08:52:24;10.05;;;4.07;;
12846;SDS011;6492;48.128;8.320;2022-10-29T08:56:29;7.68;;;4.18;;
12846;SDS011;6492;48.128;8.320;2022-10-29T09:00:35;9.82;;;7.43;;
12846;SDS011;6492;48.128;8.320;2022-10-29T09:04:41;23.90;;;17.55;;
12846;SDS011;6492;48.128;8.320;2022-10-29T09:08:45;23.83;;;16.95;;
12846;SDS011;6492;48.128;8.320;2022-10-29T09:13:07;20.63;;;16.02;;
12846;SDS011;6492;48.128;8.320;2022-10-29T09:17:22;11.32;;;5.70;;
12846;SDS011;6492;48.128;8.320;2022-10-29T09:21:32;10.98;;;4.00;;
12846;SDS011;6492;48.128;8.320;2022-10-29T09:25:42;10.00;;;3.80;;
12846;SDS011;6492;48.128;8.320;2022-10-29T09:30:00;6.50;;;2.83;;
12846;SDS011;6492;48.128;8.320;2022-10-29T09:34:08;5.95;;;4.03;;
12846;SDS011;6492;48.128;8.320;2022-10-29T09:38:17;7.78;;;3.92;;
12846;SDS011;6492;48.128;8.320;2022-10-29T09:42:25;5.75;;;2.60;;
12846;SDS011;6492;48.128;8.320;2022-10-29T09:46:35;8.05;;;4.00;;
12846;SDS011;6492;48.128;8.320;2022-10-29T09:50:47;7.40;;;3.33;;
12846;SDS011;6492;48.128;8.320;2022-10-29T09:54:54;11.45;;;3.35;;
12846;SDS011;6492;48.128;8.320;2022-10-29T09:59:09;4.78;;;3.45;;
12846;SDS011;6492;48.128;8.320;2022-10-29T10:03:25;6.68;;;2.88;;
12846;SDS011;6492;48.128;8.320;2022-10-29T10:07:30;10.18;;;4.65;;
12846;SDS011;6492;48.128;8.320;2022-10-29T10:11:34;8.45;;;3.33;;
12846;SDS011;6492;48.128;8.320;2022-10-29T10:15:42;9.10;;;3.55;;
12846;SDS011;6492;48.128;8.320;2022-10-29T10:19:51;9.25;;;3.90;;
12846;SDS011;6492;48.128;8.320;2022-10-29T10:23:53;11.43;;;3.90;;
12846;SDS011;6492;48.128;8.320;2022-10-29T10:27:56;10.05;;;4.03;;
12846;SDS011;6492;48.128;8.320;2022-10-29T10:32:10;8.85;;;3.20;;
12846;SDS011;6492;48.128;8.320;2022-10-29T10:36:15;8.23;;;2.97;;
12846;SDS011;6492;48.128;8.320;2022-10-29T10:40:19;9.40;;;3.33;;
12846;SDS011;6492;48.128;8.320;2022-10-29T10:44:23;8.95;;;3.03;;
12846;SDS011;6492;48.128;8.320;2022-10-29T10:48:28;10.25;;;3.13;;
12846;SDS011;6492;48.128;8.320;2022-10-29T10:52:30;8.25;;;3.03;;
12846;SDS011;6492;48.128;8.320;2022-10-29T10:56:32;6.40;;;2.83;;
12846;SDS011;6492;48.128;8.320;2022-10-29T11:00:53;6.38;;;2.72;;
12846;SDS011;6492;48.128;8.320;2022-10-29T11:05:02;5.40;;;2.80;;
12846;SDS011;6492;48.128;8.320;2022-10-29T11:09:15;5.38;;;2.78;;
12846;SDS011;6492;48.128;8.320;2022-10-29T11:13:25;8.48;;;3.15;;
12846;SDS011;6492;48.128;8.320;2022-10-29T11:17:31;17.00;;;3.20;;
12846;SDS011;6492;48.128;8.320;2022-10-29T11:21:39;10.07;;;3.03;;
12846;SDS011;6492;48.128;8.320;2022-10-29T11:25:46;6.38;;;2.53;;
12846;SDS011;6492;48.128;8.320;2022-10-29T11:29:53;9.73;;;3.05;;
12846;SDS011;6492;48.128;8.320;2022-10-29T11:34:03;5.15;;;2.80;;
12846;SDS011;6492;48.128;8.320;2022-10-29T11:38:14;10.68;;;2.60;;
12846;SDS011;6492;48.128;8.320;2022-10-29T11:42:19;9.75;;;3.10;;
12846;SDS011;6492;48.128;8.320;2022-10-29T11:46:24;7.05;;;2.65;;
12846;SDS011;6492;48.128;8.320;2022-10-29T11:50:35;8.75;;;2.92;;
12846;SDS011;6492;48.128;8.320;2022-10-29T11:54:47;5.85;;;2.88;;
12846;SDS011;6492;48.128;8.320;2022-10-29T11:59:00;5.70;;;2.88;;
12846;SDS011;6492;48.128;8.320;2022-10-29T12:03:16;7.20;;;3.10;;
12846;SDS011;6492;48.128;8.320;2022-10-29T12:07:33;8.10;;;3.00;;
12846;SDS011;6492;48.128;8.320;2022-10-29T12:11:44;9.73;;;3.20;;
12846;SDS011;6492;48.128;8.320;2022-10-29T12:15:57;7.13;;;2.88;;
12846;SDS011;6492;48.128;8.320;2022-10-29T12:20:09;8.65;;;3.08;;
12846;SDS011;6492;48.128;8.320;2022-10-29T12:24:21;7.63;;;3.28;;
12846;SDS011;6492;48.128;8.320;2022-10-29T12:28:43;7.20;;;3.03;;
12846;SDS011;6492;48.128;8.320;2022-10-29T12:32:51;6.97;;;3.10;;
12846;SDS011;6492;48.128;8.320;2022-10-29T14:28:16;10.85;;;3.10;;
12846;SDS011;6492;48.128;8.320;2022-10-29T15:14:01;6.95;;;3.00;;
12846;SDS011;6492;48.128;8.320;2022-10-29T15:18:05;8.07;;;3.20;;
12846;SDS011;6492;48.128;8.320;2022-10-29T15:22:17;10.00;;;3.15;;
12846;SDS011;6492;48.128;8.320;2022-10-29T15:26:21;10.23;;;3.72;;
12846;SDS011;6492;48.128;8.320;2022-10-29T15:30:29;8.63;;;3.20;;
12846;SDS011;6492;48.128;8.320;2022-10-29T15:34:33;12.77;;;3.67;;
12846;SDS011;6492;48.128;8.320;2022-10-29T15:43:25;10.80;;;5.68;;
12846;SDS011;6492;48.128;8.320;2022-10-29T15:47:29;11.05;;;6.30;;
12846;SDS011;6492;48.128;8.320;2022-10-29T15:51:31;10.68;;;5.10;;
12846;SDS011;6492;48.128;8.320;2022-10-29T15:55:34;12.98;;;4.53;;
12846;SDS011;6492;48.128;8.320;2022-10-29T15:59:37;8.45;;;4.03;;
12846;SDS011;6492;48.128;8.320;2022-10-29T16:03:41;10.82;;;4.45;;
12846;SDS011;6492;48.128;8.320;2022-10-29T16:07:43;6.05;;;4.07;;
12846;SDS011;6492;48.128;8.320;2022-10-29T16:11:46;9.88;;;5.25;;
12846;SDS011;6492;48.128;8.320;2022-10-29T16:15:49;7.85;;;3.67;;
12846;SDS011;6492;48.128;8.320;2022-10-29T16:19:53;6.60;;;3.92;;
12846;SDS011;6492;48.128;8.320;2022-10-29T16:23:54;11.68;;;3.90;;
12846;SDS011;6492;48.128;8.320;2022-10-29T16:27:56;10.88;;;4.32;;
12846;SDS011;6492;48.128;8.320;2022-10-29T16:31:58;13.73;;;4.93;;
12846;SDS011;6492;48.128;8.320;2022-10-29T16:36:01;8.05;;;4.00;;
12846;SDS011;6492;48.128;8.320;2022-10-29T16:40:03;10.35;;;5.35;;
12846;SDS011;6492;48.128;8.320;2022-10-29T16:44:06;10.35;;;4.88;;
12846;SDS011;6492;48.128;8.320;2022-10-29T16:48:08;8.30;;;4.93;;
12846;SDS011;6492;48.128;8.320;2022-10-29T16:52:11;9.25;;;4.38;;
12846;SDS011;6492;48.128;8.320;2022-10-29T16:56:13;7.35;;;3.95;;
12846;SDS011;6492;48.128;8.320;2022-10-29T17:00:15;10.48;;;4.90;;
12846;SDS011;6492;48.128;8.320;2022-10-29T17:04:17;10.15;;;4.78;;
12846;SDS011;6492;48.128;8.320;2022-10-29T17:08:20;9.60;;;4.30;;
12846;SDS011;6492;48.128;8.320;2022-10-29T17:12:22;8.25;;;4.13;;
12846;SDS011;6492;48.128;8.320;2022-10-29T17:16:23;6.47;;;3.45;;
12846;SDS011;6492;48.128;8.320;2022-10-29T17:20:25;8.00;;;3.55;;
12846;SDS011;6492;48.128;8.320;2022-10-29T17:24:28;4.82;;;3.33;;
12846;SDS011;6492;48.128;8.320;2022-10-29T17:28:32;8.02;;;3.88;;
12846;SDS011;6492;48.128;8.320;2022-10-29T17:32:35;8.35;;;3.30;;
12846;SDS011;6492;48.128;8.320;2022-10-29T17:36:37;7.28;;;3.17;;
12846;SDS011;6492;48.128;8.320;2022-10-29T17:40:43;6.47;;;3.30;;
12846;SDS011;6492;48.128;8.320;2022-10-29T17:48:53;6.90;;;3.28;;
12846;SDS011;6492;48.128;8.320;2022-10-29T17:52:54;12.32;;;8.13;;
12846;SDS011;6492;48.128;8.320;2022-10-29T17:56:59;6.77;;;3.17;;
12846;SDS011;6492;48.128;8.320;2022-10-29T18:01:01;9.60;;;3.00;;
12846;SDS011;6492;48.128;8.320;2022-10-29T18:05:05;7.20;;;2.80;;
12846;SDS011;6492;48.128;8.320;2022-10-29T18:09:07;7.35;;;3.33;;
12846;SDS011;6492;48.128;8.320;2022-10-29T18:13:10;10.40;;;3.22;;
12846;SDS011;6492;48.128;8.320;2022-10-29T18:17:12;8.32;;;2.75;;
12846;SDS011;6492;48.128;8.320;2022-10-29T18:21:14;8.10;;;3.30;;
12846;SDS011;6492;48.128;8.320;2022-10-29T18:25:17;9.02;;;2.83;;
12846;SDS011;6492;48.128;8.320;2022-10-29T18:29:20;8.85;;;2.95;;
12846;SDS011;6492;48.128;8.320;2022-10-29T18:33:22;10.15;;;3.28;;
12846;SDS011;6492;48.128;8.320;2022-10-29T18:37:24;4.57;;;2.70;;
12846;SDS011;6492;48.128;8.320;2022-10-29T18:41:26;7.05;;;2.63;;
12846;SDS011;6492;48.128;8.320;2022-10-29T18:45:29;8.35;;;2.45;;
12846;SDS011;6492;48.128;8.320;2022-10-29T18:49:32;12.32;;;7.35;;
12846;SDS011;6492;48.128;8.320;2022-10-29T18:53:34;7.57;;;2.73;;
12846;SDS011;6492;48.128;8.320;2022-10-29T18:57:36;10.80;;;2.87;;
12846;SDS011;6492;48.128;8.320;2022-10-29T19:01:40;10.00;;;3.40;;
12846;SDS011;6492;48.128;8.320;2022-10-29T19:05:41;8.57;;;3.47;;
12846;SDS011;6492;48.128;8.320;2022-10-29T19:09:44;10.97;;;3.83;;
12846;SDS011;6492;48.128;8.320;2022-10-29T19:13:48;10.30;;;3.50;;
12846;SDS011;6492;48.128;8.320;2022-10-29T19:17:52;13.73;;;5.13;;
12846;SDS011;6492;48.128;8.320;2022-10-29T19:21:53;18.40;;;6.60;;
12846;SDS011;6492;48.128;8.320;2022-10-29T19:25:55;13.97;;;5.60;;
12846;SDS011;6492;48.128;8.320;2022-10-29T19:29:57;14.43;;;4.87;;
12846;SDS011;6492;48.128;8.320;2022-10-29T19:34:01;10.70;;;3.93;;
12846;SDS011;6492;48.128;8.320;2022-10-29T19:38:05;8.67;;;4.30;;
12846;SDS011;6492;48.128;8.320;2022-10-29T19:42:06;8.80;;;3.23;;
12846;SDS011;6492;48.128;8.320;2022-10-29T19:46:11;13.43;;;4.47;;
12846;SDS011;6492;48.128;8.320;2022-10-29T19:50:15;9.87;;;4.17;;
12846;SDS011;6492;48.128;8.320;2022-10-29T19:54:18;8.90;;;4.27;;
12846;SDS011;6492;48.128;8.320;2022-10-29T19:58:20;18.03;;;4.47;;
12846;SDS011;6492;48.128;8.320;2022-10-29T20:02:23;15.67;;;4.83;;
12846;SDS011;6492;48.128;8.320;2022-10-29T20:06:26;13.13;;;4.60;;
12846;SDS011;6492;48.128;8.320;2022-10-29T20:10:28;10.47;;;4.03;;
12846;SDS011;6492;48.128;8.320;2022-10-29T20:14:30;11.70;;;3.90;;
12846;SDS011;6492;48.128;8.320;2022-10-29T20:18:34;9.27;;;3.53;;
12846;SDS011;6492;48.128;8.320;2022-10-29T20:22:38;9.50;;;3.17;;
12846;SDS011;6492;48.128;8.320;2022-10-29T20:26:40;9.70;;;3.33;;
12846;SDS011;6492;48.128;8.320;2022-10-29T20:30:42;9.67;;;3.27;;
12846;SDS011;6492;48.128;8.320;2022-10-29T20:34:44;12.32;;;3.45;;
12846;SDS011;6492;48.128;8.320;2022-10-29T20:38:48;9.00;;;3.60;;
12846;SDS011;6492;48.128;8.320;2022-10-29T20:42:50;11.25;;;4.00;;
12846;SDS011;6492;48.128;8.320;2022-10-29T20:46:51;10.75;;;4.10;;
12846;SDS011;6492;48.128;8.320;2022-10-29T20:50:53;16.52;;;4.85;;
12846;SDS011;6492;48.128;8.320;2022-10-29T20:54:56;11.55;;;4.47;;
12846;SDS011;6492;48.128;8.320;2022-10-29T20:59:00;11.27;;;4.57;;
12846;SDS011;6492;48.128;8.320;2022-10-29T21:03:02;10.70;;;4.27;;
12846;SDS011;6492;48.128;8.320;2022-10-29T21:07:04;11.17;;;4.50;;
12846;SDS011;6492;48.128;8.320;2022-10-29T21:11:08;9.83;;;4.07;;
12846;SDS011;6492;48.128;8.320;2022-10-29T21:15:11;14.10;;;4.07;;
12846;SDS011;6492;48.128;8.320;2022-10-29T21:19:13;9.80;;;3.22;;
12846;SDS011;6492;48.128;8.320;2022-10-29T21:23:15;11.13;;;3.60;;
12846;SDS011;6492;48.128;8.320;2022-10-29T21:27:18;15.33;;;3.50;;
12846;SDS011;6492;48.128;8.320;2022-10-29T21:31:20;12.50;;;3.23;;
12846;SDS011;6492;48.128;8.320;2022-10-29T21:35:23;10.02;;;2.75;;
12846;SDS011;6492;48.128;8.320;2022-10-29T21:39:24;8.37;;;3.10;;
12846;SDS011;6492;48.128;8.320;2022-10-29T21:43:30;7.65;;;2.80;;
12846;SDS011;6492;48.128;8.320;2022-10-29T21:47:31;8.93;;;2.60;;
12846;SDS011;6492;48.128;8.320;2022-10-29T21:51:33;10.50;;;2.63;;
12846;SDS011;6492;48.128;8.320;2022-10-29T21:55:35;10.38;;;2.90;;
12846;SDS011;6492;48.128;8.320;2022-10-29T21:59:38;8.05;;;2.40;;
12846;SDS011;6492;48.128;8.320;2022-10-29T22:03:41;7.78;;;2.53;;
12846;SDS011;6492;48.128;8.320;2022-10-29T22:07:44;9.65;;;2.30;;
12846;SDS011;6492;48.128;8.320;2022-10-29T22:11:46;9.63;;;2.57;;
12846;SDS011;6492;48.128;8.320;2022-10-29T22:15:49;8.57;;;2.23;;
12846;SDS011;6492;48.128;8.320;2022-10-29T22:19:50;5.35;;;1.70;;
12846;SDS011;6492;48.128;8.320;2022-10-29T22:23:53;5.35;;;2.15;;
12846;SDS011;6492;48.128;8.320;2022-10-29T22:27:55;5.38;;;2.58;;
12846;SDS011;6492;48.128;8.320;2022-10-29T22:31:58;5.88;;;2.50;;
12846;SDS011;6492;48.128;8.320;2022-10-29T22:36:04;7.93;;;2.10;;
12846;SDS011;6492;48.128;8.320;2022-10-29T22:40:08;4.27;;;2.27;;
12846;SDS011;6492;48.128;8.320;2022-10-29T22:44:10;5.67;;;2.23;;
12846;SDS011;6492;48.128;8.320;2022-10-29T22:48:13;6.07;;;2.20;;
12846;SDS011;6492;48.128;8.320;2022-10-29T22:52:15;8.50;;;2.27;;
12846;SDS011;6492;48.128;8.320;2022-10-29T22:56:17;8.73;;;2.67;;
12846;SDS011;6492;48.128;8.320;2022-10-29T23:00:20;6.00;;;2.33;;
12846;SDS011;6492;48.128;8.320;2022-10-29T23:04:23;9.10;;;2.67;;
12846;SDS011;6492;48.128;8.320;2022-10-29T23:08:26;8.45;;;2.72;;
12846;SDS011;6492;48.128;8.320;2022-10-29T23:12:28;8.38;;;2.72;;
12846;SDS011;6492;48.128;8.320;2022-10-29T23:16:31;10.13;;;2.55;;
12846;SDS011;6492;48.128;8.320;2022-10-29T23:20:35;6.40;;;2.38;;
12846;SDS011;6492;48.128;8.320;2022-10-29T23:24:37;6.40;;;2.40;;
12846;SDS011;6492;48.128;8.320;2022-10-29T23:28:39;7.90;;;2.30;;
12846;SDS011;6492;48.128;8.320;2022-10-29T23:32:41;9.32;;;2.35;;
12846;SDS011;6492;48.128;8.320;2022-10-29T23:36:44;5.30;;;1.67;;
12846;SDS011;6492;48.128;8.320;2022-10-29T23:40:47;7.13;;;2.60;;
12846;SDS011;6492;48.128;8.320;2022-10-29T23:44:49;4.10;;;1.77;;
12846;SDS011;6492;48.128;8.320;2022-10-29T23:48:50;3.65;;;1.73;;
12846;SDS011;6492;48.128;8.320;2022-10-29T23:52:54;4.53;;;2.25;;
12846;SDS011;6492;48.128;8.320;2022-10-29T23:56:55;2.95;;;1.30;;
